Terminal Aerodrome Forecast
Issued by NWS

Home | Current Version | Previous Version | Text Only | Print | Product List | Glossary Off
Versions: 1 2 3 4 5 6 7 8 9 10 11 12 13 14 15 16 17 18

301
FTUS43 KTOP 212001 AAA
TAFMHK
TAF AMD
KMHK 212001Z 2120/2218 11009KT P6SM VCSH BKN050
     FM212300 13004KT P6SM BKN050
     FM221500 16012G19KT P6SM SCT040=

USA.gov is the U.S. government's official web portal to all federal, state and local government web resources and services.